Terminal Aerodrome Forecast
Issued by NWS

Home | Current Version | Previous Version | Text Only | Print | Product List | Glossary On
Versions: 1 2 3 4 5 6 7 8 9 10 11 12 13 14 15 16 17 18 19 20 21 22 23 24 25 26 27 28 29 30 31 32 33 34 35 36 37 38 39 40 41 42 43 44 45 46
000
FTUS45 KSLC 210529
TAFENV
TAF
KENV 210529Z 2106/2206 VRB04KT P6SM VCSH BKN015 BKN050
     FM210800 29008KT 2SM -SN BR SCT007 BKN015
     FM211000 30007KT P6SM VCSH SCT020 BKN040
     FM211200 31010KT P6SM SCT040 BKN080
     FM211900 31011KT P6SM FEW050 SCT100
      AMD LTD TO CLD VIS AND WIND=

USA.gov is the U.S. government's official web portal to all federal, state and local government web resources and services.